createdAt,value
2022-08-11T00:01:07.790Z,34.21
2022-08-11T00:03:43.012Z,34.40
2022-08-11T00:06:14.087Z,34.43
2022-08-11T00:08:43.274Z,34.45
2022-08-11T00:11:12.594Z,34.71
2022-08-11T00:13:46.390Z,34.75
2022-08-11T00:16:23.849Z,34.74
2022-08-11T00:18:55.013Z,35.06
2022-08-11T00:22:01.922Z,34.75
2022-08-11T00:24:11.346Z,35.02
2022-08-11T00:26:38.259Z,35.06
2022-08-11T00:29:12.277Z,34.95
2022-08-11T00:31:46.840Z,34.98
2022-08-11T00:34:15.245Z,35.19
2022-08-11T00:37:00.196Z,34.96
2022-08-11T00:39:29.335Z,35.19
2022-08-11T00:42:43.128Z,35.05
2022-08-11T00:45:24.763Z,35.29
2022-08-11T00:48:28.620Z,35.29
2022-08-11T00:51:57.707Z,35.24
2022-08-11T00:54:52.465Z,35.46
2022-08-11T00:57:53.036Z,35.50
2022-08-11T01:00:25.430Z,35.75
2022-08-11T01:03:18.810Z,35.47
2022-08-11T01:06:32.942Z,35.68
2022-08-11T01:09:48.412Z,35.68
2022-08-11T01:12:43.040Z,35.75
2022-08-11T01:15:59.491Z,35.87
2022-08-11T01:19:19.084Z,36.05
2022-08-11T01:22:44.233Z,35.96
2022-08-11T01:26:15.864Z,36.05
2022-08-11T01:29:33.902Z,36.26
2022-08-11T01:32:40.991Z,36.17
2022-08-11T01:36:05.755Z,36.07
2022-08-11T01:39:18.319Z,36.23
2022-08-11T01:43:01.169Z,36.27
2022-08-11T01:46:00.694Z,36.46
2022-08-11T01:48:43.867Z,36.62
2022-08-11T01:51:41.975Z,36.57
2022-08-11T01:55:07.540Z,36.70
2022-08-11T01:58:00.985Z,36.63
2022-08-11T02:00:30.559Z,37.13
2022-08-11T02:03:17.063Z,36.87
2022-08-11T02:06:01.397Z,37.25
2022-08-11T02:08:58.545Z,36.98
2022-08-11T02:11:37.546Z,37.06
2022-08-11T02:14:34.659Z,37.33
2022-08-11T02:17:46.233Z,37.31
2022-08-11T02:20:49.092Z,37.17
2022-08-11T02:24:06.804Z,37.43
2022-08-11T02:26:48.621Z,37.44
2022-08-11T02:29:47.483Z,37.42
2022-08-11T02:32:51.736Z,37.34
2022-08-11T02:35:36.542Z,37.67
2022-08-11T02:38:19.788Z,37.07
2022-08-11T02:41:31.052Z,37.52
2022-08-11T02:44:49.113Z,37.49
2022-08-11T02:48:18.140Z,37.63
2022-08-11T02:51:37.408Z,37.42
2022-08-11T02:54:25.179Z,37.97
2022-08-11T02:57:05.115Z,38.06
2022-08-11T03:00:07.378Z,37.89
2022-08-11T03:03:10.903Z,37.85
2022-08-11T03:06:04.982Z,37.99
2022-08-11T03:09:14.297Z,38.27
2022-08-11T03:12:22.922Z,38.41
2022-08-11T03:15:44.724Z,38.24
2022-08-11T03:18:26.835Z,38.31
2022-08-11T03:21:22.082Z,38.60
2022-08-11T03:23:58.640Z,38.91
2022-08-11T03:26:43.342Z,38.74
2022-08-11T03:29:25.189Z,38.37
2022-08-11T03:32:26.800Z,38.48
2022-08-11T03:34:57.692Z,38.79
2022-08-11T03:37:51.599Z,38.80
2022-08-11T03:42:01.347Z,38.71
2022-08-11T03:44:25.328Z,38.83
2022-08-11T03:47:37.295Z,38.81
2022-08-11T03:50:30.155Z,38.98
2022-08-11T03:53:54.878Z,39.14
2022-08-11T03:57:04.112Z,38.99
2022-08-11T04:00:14.552Z,39.19
2022-08-11T04:03:07.792Z,39.50
2022-08-11T04:06:20.848Z,39.58
2022-08-11T04:09:37.797Z,39.48
2022-08-11T04:13:02.859Z,39.35
2022-08-11T04:16:00.667Z,39.90
2022-08-11T04:19:21.289Z,39.90
2022-08-11T04:22:22.321Z,39.98
2022-08-11T04:25:29.402Z,39.67
2022-08-11T04:28:28.937Z,40.15
2022-08-11T04:31:52.041Z,40.31
2022-08-11T04:34:46.160Z,40.01
2022-08-11T04:37:50.761Z,40.16
2022-08-11T04:40:56.705Z,40.24
2022-08-11T04:44:11.184Z,40.48
2022-08-11T04:46:59.618Z,40.62
2022-08-11T04:50:20.449Z,40.41
2022-08-11T04:53:22.083Z,41.01
2022-08-11T04:56:37.096Z,40.87
2022-08-11T04:59:59.542Z,40.69
2022-08-11T05:03:16.589Z,40.70
2022-08-11T05:06:19.036Z,41.05
2022-08-11T05:09:14.577Z,40.76
2022-08-11T05:12:13.582Z,40.54
2022-08-11T05:15:11.021Z,39.77
2022-08-11T05:18:14.428Z,38.92
2022-08-11T05:21:13.053Z,38.29
2022-08-11T05:24:07.062Z,37.74
2022-08-11T05:27:08.756Z,37.26
2022-08-11T05:30:21.095Z,36.56
2022-08-11T05:33:26.693Z,36.03
2022-08-11T05:36:17.555Z,35.85
2022-08-11T05:39:16.581Z,35.17
2022-08-11T05:42:02.518Z,34.19
2022-08-11T05:44:49.577Z,33.84
2022-08-11T05:47:45.964Z,33.75
2022-08-11T05:50:34.781Z,33.81
2022-08-11T05:53:24.378Z,33.45
2022-08-11T05:56:11.581Z,33.25
2022-08-11T05:58:53.597Z,33.19
2022-08-11T06:04:26.200Z,33.27
2022-08-11T06:07:00.848Z,33.62
2022-08-11T06:09:50.535Z,33.24
2022-08-11T06:12:32.508Z,32.94
2022-08-11T06:15:11.381Z,32.83
2022-08-11T06:17:46.998Z,32.35
2022-08-11T06:20:16.634Z,32.38
2022-08-11T06:22:52.382Z,32.27
2022-08-11T06:25:20.157Z,32.10
2022-08-11T06:27:56.194Z,31.92
2022-08-11T06:30:46.556Z,31.22
2022-08-11T06:33:48.161Z,30.90
2022-08-11T06:36:41.538Z,30.45
2022-08-11T06:39:23.099Z,30.38
2022-08-11T06:42:04.563Z,29.99
2022-08-11T06:44:40.850Z,29.95
2022-08-11T06:47:13.195Z,30.07
2022-08-11T06:50:04.487Z,29.66
2022-08-11T06:52:37.516Z,29.65
2022-08-11T06:55:57.282Z,29.32
2022-08-11T06:58:22.686Z,29.37
2022-08-11T07:00:56.398Z,29.17
2022-08-11T07:03:25.651Z,28.98
2022-08-11T07:06:05.416Z,28.83
2022-08-11T07:09:32.187Z,29.25
2022-08-11T07:12:52.768Z,29.00
2022-08-11T07:16:11.422Z,27.55
2022-08-11T07:18:48.626Z,27.31
2022-08-11T07:22:02.782Z,26.57
2022-08-11T07:25:01.667Z,26.11
2022-08-11T07:28:01.634Z,26.15
2022-08-11T07:30:29.338Z,25.86
2022-08-11T07:32:59.969Z,26.19
2022-08-11T07:35:42.951Z,25.87
2022-08-11T07:38:43.153Z,26.21
2022-08-11T07:41:12.760Z,26.27
2022-08-11T07:43:41.572Z,25.55
2022-08-11T07:46:28.886Z,25.30
2022-08-11T07:49:14.632Z,25.12
2022-08-11T07:52:02.230Z,25.43
2022-08-11T07:54:33.336Z,24.64
2022-08-11T07:57:09.016Z,25.06
2022-08-11T08:00:03.872Z,25.19
2022-08-11T08:02:50.241Z,25.26
2022-08-11T08:05:37.649Z,25.30
2022-08-11T08:08:25.311Z,25.61
2022-08-11T08:11:13.239Z,26.03
2022-08-11T08:14:00.423Z,26.04
2022-08-11T08:16:48.779Z,25.64
2022-08-11T08:19:19.379Z,25.91
2022-08-11T08:21:47.783Z,26.10
2022-08-11T08:24:15.348Z,25.81
2022-08-11T08:26:59.026Z,26.10
2022-08-11T08:29:48.330Z,26.33
2022-08-11T08:32:17.837Z,26.58
2022-08-11T08:34:46.229Z,26.18
2022-08-11T08:37:45.301Z,26.53
2022-08-11T08:40:02.973Z,26.23
2022-08-11T08:42:33.074Z,26.48
2022-08-11T08:45:09.718Z,27.07
2022-08-11T08:48:10.638Z,27.30
2022-08-11T08:51:08.044Z,26.89
2022-08-11T08:53:39.598Z,27.01
2022-08-11T08:56:28.092Z,27.26
2022-08-11T08:58:57.873Z,27.16
2022-08-11T09:01:26.142Z,27.25
2022-08-11T09:04:04.848Z,27.42
2022-08-11T09:06:40.038Z,27.82
2022-08-11T09:09:08.894Z,27.46
2022-08-11T09:11:50.090Z,28.27
2022-08-11T09:14:18.346Z,27.48
2022-08-11T09:16:46.981Z,27.55
2022-08-11T09:19:17.681Z,28.09
2022-08-11T09:22:11.652Z,28.21
2022-08-11T09:24:58.557Z,28.00
2022-08-11T09:27:26.520Z,27.42
2022-08-11T09:29:54.609Z,27.50
2022-08-11T09:32:22.802Z,26.86
2022-08-11T09:34:52.194Z,26.86
2022-08-11T09:37:54.607Z,26.66
2022-08-11T09:40:31.035Z,26.59
2022-08-11T09:43:24.872Z,26.67
2022-08-11T09:45:53.485Z,26.36
2022-08-11T09:48:25.925Z,26.76
2022-08-11T09:50:56.717Z,26.62
2022-08-11T09:53:35.711Z,26.42
2022-08-11T09:56:41.202Z,25.78
2022-08-11T09:59:09.271Z,25.42
2022-08-11T10:01:47.289Z,25.25
2022-08-11T10:04:23.213Z,24.77
2022-08-11T10:07:04.431Z,24.75
2022-08-11T10:09:50.748Z,24.76
2022-08-11T10:12:25.611Z,24.42
2022-08-11T10:15:17.538Z,24.30
2022-08-11T10:18:15.489Z,24.24
2022-08-11T10:20:45.543Z,24.77
2022-08-11T10:23:32.249Z,24.02
2022-08-11T10:26:17.406Z,23.70
2022-08-11T10:29:11.680Z,24.08
2022-08-11T10:31:57.554Z,24.18
2022-08-11T10:34:29.122Z,24.33
2022-08-11T10:36:57.220Z,23.77
2022-08-11T10:39:26.822Z,24.10
2022-08-11T10:42:25.600Z,23.85
2022-08-11T10:45:02.050Z,23.86
2022-08-11T10:47:35.178Z,23.85
2022-08-11T10:50:32.274Z,24.20
2022-08-11T10:53:18.972Z,24.22
2022-08-11T10:56:05.949Z,23.79
2022-08-11T10:58:48.116Z,23.42
2022-08-11T11:01:22.561Z,23.19
2022-08-11T11:03:55.237Z,23.89
2022-08-11T11:06:45.680Z,22.87
2022-08-11T11:09:32.238Z,22.94
2022-08-11T11:12:30.654Z,23.27
2022-08-11T11:15:17.789Z,22.98
2022-08-11T11:18:04.646Z,23.33
2022-08-11T11:20:49.086Z,22.89
2022-08-11T11:37:25.620Z,22.06
2022-08-11T11:39:55.316Z,22.27
2022-08-11T11:42:22.871Z,22.18
2022-08-11T11:44:54.129Z,22.47
2022-08-11T11:47:23.082Z,22.18
2022-08-11T11:49:50.354Z,22.38
2022-08-11T11:52:20.444Z,22.26
2022-08-11T11:54:51.444Z,22.21
2022-08-11T11:57:39.642Z,22.40
2022-08-11T12:00:33.144Z,21.77
2022-08-11T12:03:07.352Z,22.54
2022-08-11T12:05:35.874Z,22.77
2022-08-11T12:08:13.480Z,22.60
2022-08-11T12:11:22.092Z,22.32
2022-08-11T12:13:52.525Z,22.19
2022-08-11T12:16:34.807Z,22.15
2022-08-11T12:19:07.875Z,21.93
2022-08-11T12:21:37.076Z,22.11
2022-08-11T12:24:29.198Z,22.09
2022-08-11T12:27:17.645Z,22.27
2022-08-11T12:29:54.563Z,21.76
2022-08-11T12:32:26.260Z,21.51
2022-08-11T12:34:53.811Z,21.33
2022-08-11T12:37:29.983Z,21.29
2022-08-11T12:40:42.728Z,21.18
2022-08-11T12:43:37.827Z,21.14
2022-08-11T12:46:19.357Z,20.88
2022-08-11T12:49:07.952Z,20.62
2022-08-11T12:52:13.274Z,20.70
2022-08-11T12:54:58.873Z,20.70
2022-08-11T12:58:06.169Z,21.17
2022-08-11T13:00:51.985Z,20.58
2022-08-11T13:03:39.302Z,20.62
2022-08-11T13:06:07.692Z,20.60
2022-08-11T13:08:38.285Z,20.14
2022-08-11T13:11:24.861Z,20.14
2022-08-11T13:14:15.216Z,20.26
2022-08-11T13:17:03.219Z,20.49
2022-08-11T13:19:31.269Z,20.21
2022-08-11T13:21:58.671Z,20.18
2022-08-11T13:24:25.739Z,20.15
2022-08-11T13:26:52.871Z,20.56
2022-08-11T13:29:23.527Z,20.23
2022-08-11T13:31:56.143Z,20.37
2022-08-11T13:34:26.705Z,20.05
2022-08-11T13:37:00.225Z,19.91
2022-08-11T13:39:32.329Z,19.65
2022-08-11T13:42:01.665Z,19.36
2022-08-11T13:44:31.875Z,19.65
2022-08-11T13:47:04.014Z,19.27
2022-08-11T13:49:35.767Z,19.46
2022-08-11T13:52:04.611Z,19.68
2022-08-11T13:54:35.305Z,19.69
2022-08-11T13:57:09.415Z,19.59
2022-08-11T13:59:51.410Z,18.80
2022-08-11T14:02:30.266Z,18.66
2022-08-11T14:05:23.188Z,19.60
2022-08-11T14:07:53.974Z,19.50
2022-08-11T14:10:24.883Z,19.28
2022-08-11T14:13:19.218Z,18.75
2022-08-11T14:15:48.548Z,18.78
2022-08-11T14:18:29.448Z,18.69
2022-08-11T14:21:19.132Z,18.54
2022-08-11T14:23:55.295Z,18.50
2022-08-11T14:26:29.023Z,18.51
2022-08-11T14:29:08.116Z,18.40
2022-08-11T14:31:39.521Z,18.07
2022-08-11T14:34:12.525Z,18.18
2022-08-11T14:36:44.480Z,18.15
2022-08-11T14:39:17.035Z,17.95
2022-08-11T14:42:11.286Z,17.66
2022-08-11T14:45:08.061Z,17.86
2022-08-11T14:47:38.390Z,17.84
2022-08-11T14:50:11.422Z,17.57
2022-08-11T14:52:50.070Z,17.77
2022-08-11T14:55:37.436Z,17.67
2022-08-11T14:58:05.424Z,17.78
2022-08-11T15:00:34.767Z,17.52
2022-08-11T15:03:11.731Z,17.19
2022-08-11T15:05:57.363Z,17.50
2022-08-11T15:08:50.661Z,17.44
2022-08-11T15:11:39.471Z,17.01
2022-08-11T15:14:10.181Z,17.51
2022-08-11T15:17:00.420Z,17.30
2022-08-11T15:19:40.212Z,17.52
2022-08-11T15:22:28.451Z,17.45
2022-08-11T15:24:58.421Z,17.42
2022-08-11T15:27:44.624Z,17.26
2022-08-11T15:30:33.057Z,17.11
2022-08-11T15:33:28.044Z,17.22
2022-08-11T15:36:15.712Z,17.35
2022-08-11T15:38:58.211Z,17.42
2022-08-11T15:42:17.689Z,17.49
2022-08-11T15:45:11.873Z,17.67
2022-08-11T15:47:45.966Z,17.81
2022-08-11T15:50:19.883Z,17.60
2022-08-11T15:52:53.025Z,17.74
2022-08-11T15:55:21.592Z,17.70
2022-08-11T15:58:09.500Z,18.01
2022-08-11T16:00:59.082Z,17.42
2022-08-11T16:04:08.042Z,17.71
2022-08-11T16:06:57.989Z,17.89
2022-08-11T16:09:37.578Z,18.05
2022-08-11T16:12:20.023Z,18.21
2022-08-11T16:15:10.498Z,18.18
2022-08-11T16:17:50.911Z,18.12
2022-08-11T16:20:21.925Z,18.65
2022-08-11T16:22:55.184Z,18.23
2022-08-11T16:27:01.615Z,18.74
2022-08-11T16:28:17.908Z,18.60
2022-08-11T16:30:46.373Z,18.54
2022-08-11T16:33:48.662Z,18.53
2022-08-11T16:36:23.606Z,18.71
2022-08-11T16:38:51.467Z,18.36
2022-08-11T16:41:41.215Z,18.55
2022-08-11T16:44:37.219Z,18.38
2022-08-11T16:47:08.480Z,18.56
2022-08-11T16:49:38.810Z,18.42
2022-08-11T16:52:12.085Z,18.57
2022-08-11T16:54:41.717Z,18.49
2022-08-11T16:57:42.807Z,18.63
2022-08-11T17:00:13.029Z,18.32
2022-08-11T17:03:25.848Z,18.66
2022-08-11T17:06:12.387Z,18.69
2022-08-11T17:09:28.302Z,18.14
2022-08-11T17:12:16.490Z,18.85
2022-08-11T17:14:54.143Z,18.59
2022-08-11T17:17:33.355Z,18.21
2022-08-11T17:20:41.623Z,18.28
2022-08-11T17:23:15.992Z,18.44
2022-08-11T17:25:59.322Z,18.25
2022-08-11T17:28:32.031Z,18.30
2022-08-11T17:31:22.689Z,18.47
2022-08-11T17:34:10.088Z,18.49
2022-08-11T17:36:40.435Z,18.73
2022-08-11T17:39:13.305Z,18.42
2022-08-11T17:42:00.718Z,18.54
2022-08-11T17:44:46.573Z,18.58
2022-08-11T17:47:33.352Z,18.72
2022-08-11T17:50:16.511Z,18.41
2022-08-11T17:53:05.845Z,19.04
2022-08-11T17:55:57.594Z,18.69
2022-08-11T17:58:48.770Z,19.08
2022-08-11T18:01:16.885Z,19.28
2022-08-11T18:03:53.071Z,19.42
2022-08-11T18:06:33.579Z,19.54
2022-08-11T18:09:23.060Z,19.51
2022-08-11T18:12:12.825Z,19.21
2022-08-11T18:15:05.111Z,19.66
2022-08-11T18:17:51.688Z,19.47
2022-08-11T18:20:37.532Z,19.28
2022-08-11T18:23:46.924Z,19.51
2022-08-11T18:26:38.350Z,19.67
2022-08-11T18:29:26.311Z,19.76
2022-08-11T18:32:21.184Z,19.92
2022-08-11T18:35:11.129Z,20.28
2022-08-11T18:38:06.145Z,20.19
2022-08-11T18:40:52.083Z,20.33
2022-08-11T18:43:43.344Z,20.37
2022-08-11T18:46:32.086Z,20.56
2022-08-11T18:49:24.627Z,20.49
2022-08-11T18:52:14.575Z,20.63
2022-08-11T18:55:03.264Z,21.08
2022-08-11T18:57:53.763Z,21.12
2022-08-11T19:00:41.949Z,21.15
2022-08-11T19:03:30.574Z,21.50
2022-08-11T19:06:39.134Z,21.46
2022-08-11T19:09:31.427Z,21.33
2022-08-11T19:12:19.384Z,21.93
2022-08-11T19:15:11.339Z,22.03
2022-08-11T19:18:02.710Z,22.33
2022-08-11T19:20:51.452Z,22.06
2022-08-11T19:23:46.994Z,22.27
2022-08-11T19:26:34.323Z,22.31
2022-08-11T19:30:05.133Z,22.51
2022-08-11T19:32:44.101Z,22.23
2022-08-11T19:35:31.246Z,22.50
2022-08-11T19:38:17.812Z,22.63
2022-08-11T19:41:04.531Z,22.35
2022-08-11T19:43:51.941Z,22.63
2022-08-11T19:46:39.770Z,22.88
2022-08-11T19:49:27.584Z,22.90
2022-08-11T19:52:14.930Z,22.92
2022-08-11T19:55:03.556Z,23.04
2022-08-11T19:57:50.789Z,23.39
2022-08-11T20:00:38.336Z,23.34
2022-08-11T20:03:29.041Z,23.49
2022-08-11T20:06:19.592Z,23.32
2022-08-11T20:09:07.953Z,23.68
2022-08-11T20:11:59.989Z,23.49
2022-08-11T20:14:49.548Z,23.84
2022-08-11T20:17:36.498Z,23.86
2022-08-11T20:20:26.807Z,23.84
2022-08-11T20:23:14.577Z,23.87
2022-08-11T20:26:08.683Z,24.01
2022-08-11T20:29:09.467Z,24.05
2022-08-11T20:31:56.262Z,23.73
2022-08-11T20:34:42.532Z,23.99
2022-08-11T20:37:29.336Z,23.99
2022-08-11T20:40:16.172Z,23.91
2022-08-11T20:43:09.404Z,24.22
2022-08-11T20:46:15.609Z,23.77
2022-08-11T20:49:02.423Z,24.36
2022-08-11T20:51:48.470Z,24.17
2022-08-11T20:58:04.799Z,24.59
2022-08-11T21:00:52.743Z,24.50
2022-08-11T21:06:47.631Z,24.49
2022-08-11T21:10:01.148Z,24.79
2022-08-11T21:12:41.673Z,24.58
2022-08-11T21:15:39.107Z,24.70
2022-08-11T21:18:35.292Z,24.97
2022-08-11T21:21:25.193Z,25.01
2022-08-11T21:24:13.156Z,25.16
2022-08-11T21:27:06.529Z,25.21
2022-08-11T21:29:54.802Z,25.16
2022-08-11T21:32:41.802Z,25.10
2022-08-11T21:35:29.031Z,25.54
2022-08-11T21:38:15.875Z,25.89
2022-08-11T21:41:01.181Z,25.79
2022-08-11T21:43:50.032Z,25.77
2022-08-11T21:46:39.325Z,26.11
2022-08-11T21:49:27.621Z,26.25
2022-08-11T21:52:12.995Z,26.03
2022-08-11T21:54:59.552Z,26.21
2022-08-11T21:57:48.178Z,26.53
2022-08-11T22:00:37.747Z,26.27
2022-08-11T22:03:24.050Z,26.27
2022-08-11T22:06:11.198Z,26.46
2022-08-11T22:08:56.458Z,26.31
2022-08-11T22:11:42.365Z,26.37
2022-08-11T22:14:27.561Z,26.66
2022-08-11T22:17:12.922Z,26.46
2022-08-11T22:20:00.714Z,26.54
2022-08-11T22:22:52.170Z,26.50
2022-08-11T22:25:50.772Z,26.83
2022-08-11T22:28:37.585Z,26.59
2022-08-11T22:31:24.427Z,26.84
2022-08-11T22:34:09.702Z,26.89
2022-08-11T22:36:55.482Z,26.73
2022-08-11T22:39:42.263Z,27.02
2022-08-11T22:42:33.567Z,26.81
2022-08-11T22:45:20.424Z,27.03
2022-08-11T22:48:08.084Z,26.83
2022-08-11T22:50:57.680Z,27.08
2022-08-11T22:53:57.395Z,26.83
2022-08-11T22:56:46.800Z,26.84
2022-08-11T22:59:33.572Z,27.00
2022-08-11T23:02:20.521Z,27.11
2022-08-11T23:05:08.409Z,27.19
2022-08-11T23:07:55.255Z,27.28
2022-08-11T23:10:41.462Z,27.49
2022-08-11T23:13:27.628Z,27.57
2022-08-11T23:16:14.244Z,27.54
2022-08-11T23:19:00.013Z,27.65
2022-08-11T23:21:47.011Z,27.31
2022-08-11T23:24:32.827Z,27.27
2022-08-11T23:27:21.145Z,27.51
2022-08-11T23:30:09.387Z,28.00
2022-08-11T23:32:57.551Z,28.06
2022-08-11T23:35:53.800Z,27.98
2022-08-11T23:38:44.010Z,28.09
2022-08-11T23:41:33.831Z,27.90
2022-08-11T23:44:24.084Z,28.21
2022-08-11T23:47:14.917Z,28.00
2022-08-11T23:50:01.213Z,27.99
2022-08-11T23:52:47.889Z,27.94
2022-08-11T23:55:33.681Z,28.01
2022-08-11T23:58:19.496Z,28.47
